Hovedside
METAR-TAF:

METAR-TAF

Lufthavner :

Kuopio lufthavn

Kuopio, Finland

breddegrad: 63-01N, lengdegrad: 027-48E, høyde over havet: 98 m

Gjeldene værobservasjon

Denne rapporten ble laget for 21 minutter siden, klokken 06:50 UTC
Vind 7 kt fra Vest, skiftende mellom Vest-sørvest og Nordvest
Temperatur 14°C
Luftfuktighet 67%
Trykk 1008 hPa
Sikt 10 km eller mer
Overskyet i en høyde av 4300 ft
lette regnbyger

METAR: EFKU 140650Z AUTO 28007KT 240V320 9999 -SHRA OVC043 14/08 Q1008

Tid: 10:11 (07:11 UTC)

Varsel

Denne rapporten ble laget for 1 time og 47 minutter siden, klokken 05:24 UTC
Varsel gyldig fra 14. klokken 06 UTC til 15. klokken 06 UTC
Vind 8 kt fra Vest
Sikt 10 km eller mer
ingen skyer under 1500 m og ingen bygeskyer
Midlertidig
fra 14. klokken 09 UTC til 14. klokken 15 UTC
Få skyer i en høyde av 4500 ft, Tårnskyer (cumulus).

TAF: EFKU 140524Z 1406/1506 28008KT CAVOK TEMPO 1409/1415 FEW045TCU

Værobservasjoner og værvarsel for over 4000 flyplasser (METAR- og TAF-rapporter).

Tilgjengelige stasjoner er representert av de røde og gule prikkene på kartet.

Hold musepekeren over prikken for å se navnet på stasjonen.

Klikk så for å se værobservasjoner og -varsler.

For å forandre kartet kan du klikke på den grønne knappen med svart kryss for å zoome inn, på den grønne knappen med strek for å zoome ut, eller på de grønne pilene for å se tilstøtende kart.


METAR-TAF: